sensor_id;sensor_type;location;lat;lon;timestamp;P1;durP1;ratioP1;P2;durP2;ratioP2
13061;SDS011;6597;52.218;9.882;2023-11-21T00:00:57;19.67;;;11.87;;
13061;SDS011;6597;52.218;9.882;2023-11-21T00:03:23;28.47;;;12.43;;
13061;SDS011;6597;52.218;9.882;2023-11-21T00:05:54;21.93;;;12.40;;
13061;SDS011;6597;52.218;9.882;2023-11-21T00:08:21;25.27;;;12.10;;
13061;SDS011;6597;52.218;9.882;2023-11-21T00:10:47;22.80;;;12.00;;
13061;SDS011;6597;52.218;9.882;2023-11-21T00:13:14;18.87;;;11.90;;
13061;SDS011;6597;52.218;9.882;2023-11-21T00:15:41;21.47;;;11.23;;
13061;SDS011;6597;52.218;9.882;2023-11-21T00:18:07;24.17;;;11.67;;
13061;SDS011;6597;52.218;9.882;2023-11-21T00:20:34;28.73;;;12.53;;
13061;SDS011;6597;52.218;9.882;2023-11-21T00:23:01;23.13;;;13.00;;
13061;SDS011;6597;52.218;9.882;2023-11-21T00:25:28;22.03;;;12.83;;
13061;SDS011;6597;52.218;9.882;2023-11-21T00:27:56;20.83;;;12.73;;
13061;SDS011;6597;52.218;9.882;2023-11-21T00:30:22;26.83;;;13.73;;
13061;SDS011;6597;52.218;9.882;2023-11-21T00:32:49;23.37;;;12.97;;
13061;SDS011;6597;52.218;9.882;2023-11-21T00:35:16;21.97;;;13.20;;
13061;SDS011;6597;52.218;9.882;2023-11-21T00:37:42;24.47;;;13.43;;
13061;SDS011;6597;52.218;9.882;2023-11-21T00:40:11;26.37;;;13.80;;
13061;SDS011;6597;52.218;9.882;2023-11-21T00:42:40;26.93;;;13.80;;
13061;SDS011;6597;52.218;9.882;2023-11-21T00:45:07;24.03;;;14.73;;
13061;SDS011;6597;52.218;9.882;2023-11-21T00:47:34;29.63;;;15.30;;
13061;SDS011;6597;52.218;9.882;2023-11-21T00:50:01;27.20;;;14.00;;
13061;SDS011;6597;52.218;9.882;2023-11-21T00:52:29;30.03;;;14.60;;
13061;SDS011;6597;52.218;9.882;2023-11-21T00:54:56;28.90;;;15.57;;
13061;SDS011;6597;52.218;9.882;2023-11-21T00:57:25;27.90;;;14.60;;
13061;SDS011;6597;52.218;9.882;2023-11-21T00:59:52;24.47;;;14.63;;
13061;SDS011;6597;52.218;9.882;2023-11-21T01:02:18;32.80;;;14.83;;
13061;SDS011;6597;52.218;9.882;2023-11-21T01:04:46;24.33;;;14.13;;
13061;SDS011;6597;52.218;9.882;2023-11-21T01:07:14;27.10;;;14.17;;
13061;SDS011;6597;52.218;9.882;2023-11-21T01:09:40;26.00;;;13.97;;
13061;SDS011;6597;52.218;9.882;2023-11-21T01:12:09;25.30;;;13.77;;
13061;SDS011;6597;52.218;9.882;2023-11-21T01:14:38;25.73;;;13.20;;
13061;SDS011;6597;52.218;9.882;2023-11-21T01:17:04;23.37;;;13.77;;
13061;SDS011;6597;52.218;9.882;2023-11-21T01:19:31;22.43;;;13.80;;
13061;SDS011;6597;52.218;9.882;2023-11-21T01:21:57;25.77;;;14.30;;
13061;SDS011;6597;52.218;9.882;2023-11-21T01:24:25;25.37;;;14.37;;
13061;SDS011;6597;52.218;9.882;2023-11-21T01:26:52;26.87;;;14.10;;
13061;SDS011;6597;52.218;9.882;2023-11-21T01:29:19;29.60;;;14.03;;
13061;SDS011;6597;52.218;9.882;2023-11-21T01:31:47;25.93;;;14.23;;
13061;SDS011;6597;52.218;9.882;2023-11-21T01:34:13;20.63;;;12.90;;
13061;SDS011;6597;52.218;9.882;2023-11-21T01:36:40;33.77;;;13.93;;
13061;SDS011;6597;52.218;9.882;2023-11-21T01:39:06;28.07;;;14.03;;
13061;SDS011;6597;52.218;9.882;2023-11-21T01:41:33;25.43;;;13.47;;
13061;SDS011;6597;52.218;9.882;2023-11-21T01:44:01;26.67;;;14.47;;
13061;SDS011;6597;52.218;9.882;2023-11-21T01:46:28;24.03;;;13.60;;
13061;SDS011;6597;52.218;9.882;2023-11-21T01:48:57;26.93;;;14.13;;
13061;SDS011;6597;52.218;9.882;2023-11-21T01:51:23;24.20;;;13.73;;
13061;SDS011;6597;52.218;9.882;2023-11-21T01:53:51;24.37;;;13.33;;
13061;SDS011;6597;52.218;9.882;2023-11-21T01:56:18;22.70;;;13.70;;
13061;SDS011;6597;52.218;9.882;2023-11-21T01:58:45;32.23;;;14.63;;
13061;SDS011;6597;52.218;9.882;2023-11-21T02:01:12;21.47;;;13.97;;
13061;SDS011;6597;52.218;9.882;2023-11-21T02:03:39;28.40;;;13.77;;
13061;SDS011;6597;52.218;9.882;2023-11-21T02:06:08;25.83;;;14.80;;
13061;SDS011;6597;52.218;9.882;2023-11-21T02:08:35;22.07;;;14.63;;
13061;SDS011;6597;52.218;9.882;2023-11-21T02:11:03;28.63;;;15.23;;
13061;SDS011;6597;52.218;9.882;2023-11-21T02:13:30;26.80;;;14.07;;
13061;SDS011;6597;52.218;9.882;2023-11-21T02:15:58;29.60;;;15.00;;
13061;SDS011;6597;52.218;9.882;2023-11-21T02:18:25;22.83;;;14.67;;
13061;SDS011;6597;52.218;9.882;2023-11-21T02:20:54;26.63;;;14.87;;
13061;SDS011;6597;52.218;9.882;2023-11-21T02:23:22;24.27;;;14.37;;
13061;SDS011;6597;52.218;9.882;2023-11-21T02:25:53;24.27;;;14.47;;
13061;SDS011;6597;52.218;9.882;2023-11-21T02:28:21;27.83;;;13.77;;
13061;SDS011;6597;52.218;9.882;2023-11-21T02:30:51;31.53;;;15.87;;
13061;SDS011;6597;52.218;9.882;2023-11-21T02:33:20;28.93;;;16.17;;
13061;SDS011;6597;52.218;9.882;2023-11-21T02:35:47;36.73;;;16.63;;
13061;SDS011;6597;52.218;9.882;2023-11-21T02:38:14;33.83;;;16.07;;
13061;SDS011;6597;52.218;9.882;2023-11-21T02:40:42;30.50;;;15.47;;
13061;SDS011;6597;52.218;9.882;2023-11-21T02:43:08;26.33;;;15.67;;
13061;SDS011;6597;52.218;9.882;2023-11-21T02:45:35;34.33;;;17.03;;
13061;SDS011;6597;52.218;9.882;2023-11-21T02:48:01;31.43;;;15.93;;
13061;SDS011;6597;52.218;9.882;2023-11-21T02:50:29;34.47;;;16.53;;
13061;SDS011;6597;52.218;9.882;2023-11-21T02:52:55;33.63;;;16.37;;
13061;SDS011;6597;52.218;9.882;2023-11-21T02:55:25;40.57;;;17.20;;
13061;SDS011;6597;52.218;9.882;2023-11-21T02:57:54;30.37;;;16.10;;
13061;SDS011;6597;52.218;9.882;2023-11-21T03:00:22;33.10;;;17.20;;
13061;SDS011;6597;52.218;9.882;2023-11-21T03:02:51;35.80;;;18.30;;
13061;SDS011;6597;52.218;9.882;2023-11-21T03:05:18;28.53;;;17.93;;
13061;SDS011;6597;52.218;9.882;2023-11-21T03:07:45;35.77;;;18.00;;
13061;SDS011;6597;52.218;9.882;2023-11-21T03:10:11;25.10;;;16.33;;
13061;SDS011;6597;52.218;9.882;2023-11-21T03:12:38;30.83;;;18.00;;
13061;SDS011;6597;52.218;9.882;2023-11-21T03:15:06;31.73;;;16.97;;
13061;SDS011;6597;52.218;9.882;2023-11-21T03:17:35;28.73;;;15.47;;
13061;SDS011;6597;52.218;9.882;2023-11-21T03:20:02;30.67;;;16.53;;
13061;SDS011;6597;52.218;9.882;2023-11-21T03:22:29;32.63;;;17.77;;
13061;SDS011;6597;52.218;9.882;2023-11-21T03:24:56;31.20;;;17.93;;
13061;SDS011;6597;52.218;9.882;2023-11-21T03:27:23;29.20;;;18.10;;
13061;SDS011;6597;52.218;9.882;2023-11-21T03:29:50;26.13;;;17.17;;
13061;SDS011;6597;52.218;9.882;2023-11-21T03:32:18;33.57;;;18.33;;
13061;SDS011;6597;52.218;9.882;2023-11-21T03:34:55;34.70;;;18.97;;
13061;SDS011;6597;52.218;9.882;2023-11-21T03:37:23;35.23;;;19.43;;
13061;SDS011;6597;52.218;9.882;2023-11-21T03:39:54;35.13;;;19.83;;
13061;SDS011;6597;52.218;9.882;2023-11-21T03:42:21;38.20;;;19.27;;
13061;SDS011;6597;52.218;9.882;2023-11-21T03:44:48;37.17;;;20.43;;
13061;SDS011;6597;52.218;9.882;2023-11-21T03:47:14;33.83;;;18.90;;
13061;SDS011;6597;52.218;9.882;2023-11-21T03:49:42;39.20;;;21.03;;
13061;SDS011;6597;52.218;9.882;2023-11-21T03:52:09;44.20;;;20.50;;
13061;SDS011;6597;52.218;9.882;2023-11-21T03:54:35;39.73;;;20.57;;
13061;SDS011;6597;52.218;9.882;2023-11-21T03:57:02;39.60;;;20.30;;
13061;SDS011;6597;52.218;9.882;2023-11-21T03:59:29;37.87;;;19.77;;
13061;SDS011;6597;52.218;9.882;2023-11-21T04:01:56;37.20;;;18.70;;
13061;SDS011;6597;52.218;9.882;2023-11-21T04:04:22;40.07;;;21.77;;
13061;SDS011;6597;52.218;9.882;2023-11-21T04:06:50;44.83;;;21.00;;
13061;SDS011;6597;52.218;9.882;2023-11-21T04:09:18;34.70;;;20.53;;
13061;SDS011;6597;52.218;9.882;2023-11-21T04:11:44;39.27;;;20.90;;
13061;SDS011;6597;52.218;9.882;2023-11-21T04:14:11;37.10;;;19.90;;
13061;SDS011;6597;52.218;9.882;2023-11-21T04:16:38;33.47;;;19.17;;
13061;SDS011;6597;52.218;9.882;2023-11-21T04:19:04;42.50;;;20.00;;
13061;SDS011;6597;52.218;9.882;2023-11-21T04:21:31;36.60;;;20.30;;
13061;SDS011;6597;52.218;9.882;2023-11-21T04:23:59;41.77;;;21.83;;
13061;SDS011;6597;52.218;9.882;2023-11-21T04:26:26;42.70;;;20.17;;
13061;SDS011;6597;52.218;9.882;2023-11-21T04:28:52;39.40;;;19.80;;
13061;SDS011;6597;52.218;9.882;2023-11-21T04:31:19;39.00;;;20.10;;
13061;SDS011;6597;52.218;9.882;2023-11-21T04:33:46;43.10;;;21.10;;
13061;SDS011;6597;52.218;9.882;2023-11-21T04:36:12;40.60;;;21.47;;
13061;SDS011;6597;52.218;9.882;2023-11-21T04:38:39;38.80;;;20.03;;
13061;SDS011;6597;52.218;9.882;2023-11-21T04:41:07;39.50;;;20.07;;
13061;SDS011;6597;52.218;9.882;2023-11-21T04:43:34;41.70;;;20.87;;
13061;SDS011;6597;52.218;9.882;2023-11-21T04:46:00;40.77;;;21.00;;
13061;SDS011;6597;52.218;9.882;2023-11-21T04:48:27;36.67;;;20.43;;
13061;SDS011;6597;52.218;9.882;2023-11-21T04:50:54;49.57;;;19.60;;
13061;SDS011;6597;52.218;9.882;2023-11-21T04:53:21;42.80;;;20.63;;
13061;SDS011;6597;52.218;9.882;2023-11-21T04:55:47;40.47;;;20.77;;
13061;SDS011;6597;52.218;9.882;2023-11-21T04:58:15;44.27;;;20.23;;
13061;SDS011;6597;52.218;9.882;2023-11-21T05:00:42;40.43;;;21.07;;
13061;SDS011;6597;52.218;9.882;2023-11-21T05:03:09;37.20;;;20.70;;
13061;SDS011;6597;52.218;9.882;2023-11-21T05:05:35;41.33;;;19.93;;
13061;SDS011;6597;52.218;9.882;2023-11-21T05:08:02;43.77;;;20.07;;
13061;SDS011;6597;52.218;9.882;2023-11-21T05:10:29;45.07;;;20.73;;
13061;SDS011;6597;52.218;9.882;2023-11-21T05:12:56;40.10;;;21.77;;
13061;SDS011;6597;52.218;9.882;2023-11-21T05:15:24;45.33;;;21.37;;
13061;SDS011;6597;52.218;9.882;2023-11-21T05:17:52;36.43;;;20.67;;
13061;SDS011;6597;52.218;9.882;2023-11-21T05:20:20;40.73;;;20.20;;
13061;SDS011;6597;52.218;9.882;2023-11-21T05:22:46;41.60;;;20.63;;
13061;SDS011;6597;52.218;9.882;2023-11-21T05:25:13;39.53;;;20.80;;
13061;SDS011;6597;52.218;9.882;2023-11-21T05:27:40;38.93;;;20.13;;
13061;SDS011;6597;52.218;9.882;2023-11-21T05:30:07;46.23;;;20.43;;
13061;SDS011;6597;52.218;9.882;2023-11-21T05:32:39;38.00;;;19.97;;
13061;SDS011;6597;52.218;9.882;2023-11-21T05:35:07;48.53;;;20.63;;
13061;SDS011;6597;52.218;9.882;2023-11-21T05:37:38;43.73;;;20.40;;
13061;SDS011;6597;52.218;9.882;2023-11-21T05:40:05;42.27;;;20.30;;
13061;SDS011;6597;52.218;9.882;2023-11-21T05:42:31;46.33;;;21.10;;
13061;SDS011;6597;52.218;9.882;2023-11-21T05:44:58;35.53;;;19.30;;
13061;SDS011;6597;52.218;9.882;2023-11-21T05:47:35;35.90;;;19.93;;
13061;SDS011;6597;52.218;9.882;2023-11-21T05:50:05;42.97;;;20.00;;
13061;SDS011;6597;52.218;9.882;2023-11-21T05:52:35;39.10;;;19.70;;
13061;SDS011;6597;52.218;9.882;2023-11-21T05:55:02;38.17;;;19.93;;
13061;SDS011;6597;52.218;9.882;2023-11-21T05:57:29;48.33;;;19.57;;
13061;SDS011;6597;52.218;9.882;2023-11-21T05:59:55;38.03;;;20.07;;
13061;SDS011;6597;52.218;9.882;2023-11-21T06:02:22;41.47;;;20.87;;
13061;SDS011;6597;52.218;9.882;2023-11-21T06:04:48;42.80;;;21.13;;
13061;SDS011;6597;52.218;9.882;2023-11-21T06:07:18;43.07;;;20.93;;
13061;SDS011;6597;52.218;9.882;2023-11-21T06:09:45;43.97;;;20.50;;
13061;SDS011;6597;52.218;9.882;2023-11-21T06:12:11;35.93;;;19.70;;
13061;SDS011;6597;52.218;9.882;2023-11-21T06:14:38;40.73;;;19.50;;
13061;SDS011;6597;52.218;9.882;2023-11-21T06:17:04;37.03;;;19.57;;
13061;SDS011;6597;52.218;9.882;2023-11-21T06:19:31;48.47;;;21.23;;
13061;SDS011;6597;52.218;9.882;2023-11-21T06:21:57;54.07;;;21.10;;
13061;SDS011;6597;52.218;9.882;2023-11-21T06:24:26;41.87;;;20.40;;
13061;SDS011;6597;52.218;9.882;2023-11-21T06:26:53;35.87;;;20.87;;
13061;SDS011;6597;52.218;9.882;2023-11-21T06:29:19;43.97;;;19.87;;
13061;SDS011;6597;52.218;9.882;2023-11-21T06:31:46;41.70;;;20.33;;
13061;SDS011;6597;52.218;9.882;2023-11-21T06:34:13;37.60;;;19.27;;
13061;SDS011;6597;52.218;9.882;2023-11-21T06:36:39;35.33;;;19.10;;
13061;SDS011;6597;52.218;9.882;2023-11-21T06:39:06;39.93;;;19.57;;
13061;SDS011;6597;52.218;9.882;2023-11-21T06:41:35;36.70;;;19.30;;
13061;SDS011;6597;52.218;9.882;2023-11-21T06:44:04;34.60;;;19.47;;
13061;SDS011;6597;52.218;9.882;2023-11-21T06:46:30;38.03;;;19.27;;
13061;SDS011;6597;52.218;9.882;2023-11-21T06:48:57;43.33;;;20.03;;
13061;SDS011;6597;52.218;9.882;2023-11-21T06:51:23;40.60;;;19.13;;
13061;SDS011;6597;52.218;9.882;2023-11-21T06:53:50;39.80;;;19.50;;
13061;SDS011;6597;52.218;9.882;2023-11-21T06:56:16;43.30;;;19.83;;
13061;SDS011;6597;52.218;9.882;2023-11-21T06:58:45;39.20;;;18.87;;
13061;SDS011;6597;52.218;9.882;2023-11-21T07:01:11;36.83;;;19.87;;
13061;SDS011;6597;52.218;9.882;2023-11-21T07:03:38;38.53;;;19.37;;
13061;SDS011;6597;52.218;9.882;2023-11-21T07:06:06;42.90;;;19.60;;
13061;SDS011;6597;52.218;9.882;2023-11-21T07:08:33;35.17;;;19.43;;
13061;SDS011;6597;52.218;9.882;2023-11-21T07:11:00;40.77;;;20.13;;
13061;SDS011;6597;52.218;9.882;2023-11-21T07:13:28;34.87;;;19.23;;
13061;SDS011;6597;52.218;9.882;2023-11-21T07:15:56;44.43;;;20.77;;
13061;SDS011;6597;52.218;9.882;2023-11-21T07:18:22;41.60;;;18.97;;
13061;SDS011;6597;52.218;9.882;2023-11-21T07:20:49;38.13;;;18.77;;
13061;SDS011;6597;52.218;9.882;2023-11-21T07:23:17;38.13;;;19.33;;
13061;SDS011;6597;52.218;9.882;2023-11-21T07:25:43;18.77;;;9.90;;
13061;SDS011;6597;52.218;9.882;2023-11-21T07:28:10;10.33;;;5.33;;
13061;SDS011;6597;52.218;9.882;2023-11-21T07:30:36;10.43;;;4.87;;
13061;SDS011;6597;52.218;9.882;2023-11-21T07:33:04;4.07;;;3.10;;
13061;SDS011;6597;52.218;9.882;2023-11-21T07:35:32;4.77;;;3.30;;
13061;SDS011;6597;52.218;9.882;2023-11-21T07:37:59;4.03;;;3.03;;
13061;SDS011;6597;52.218;9.882;2023-11-21T07:40:25;4.37;;;3.13;;
13061;SDS011;6597;52.218;9.882;2023-11-21T07:42:52;3.80;;;2.97;;
13061;SDS011;6597;52.218;9.882;2023-11-21T07:45:22;5.10;;;3.30;;
13061;SDS011;6597;52.218;9.882;2023-11-21T07:47:49;7.33;;;4.00;;
13061;SDS011;6597;52.218;9.882;2023-11-21T07:50:17;5.63;;;4.33;;
13061;SDS011;6597;52.218;9.882;2023-11-21T07:52:44;7.87;;;5.13;;
13061;SDS011;6597;52.218;9.882;2023-11-21T07:55:11;7.47;;;4.50;;
13061;SDS011;6597;52.218;9.882;2023-11-21T07:57:37;9.67;;;5.47;;
13061;SDS011;6597;52.218;9.882;2023-11-21T08:00:04;6.37;;;4.90;;
13061;SDS011;6597;52.218;9.882;2023-11-21T08:02:37;6.87;;;5.00;;
13061;SDS011;6597;52.218;9.882;2023-11-21T08:05:04;7.13;;;5.40;;
13061;SDS011;6597;52.218;9.882;2023-11-21T08:07:33;9.70;;;5.67;;
13061;SDS011;6597;52.218;9.882;2023-11-21T08:10:00;9.27;;;5.67;;
13061;SDS011;6597;52.218;9.882;2023-11-21T08:12:26;7.50;;;5.40;;
13061;SDS011;6597;52.218;9.882;2023-11-21T08:14:53;7.73;;;5.97;;
13061;SDS011;6597;52.218;9.882;2023-11-21T08:17:19;8.13;;;5.80;;
13061;SDS011;6597;52.218;9.882;2023-11-21T08:19:46;7.43;;;5.40;;
13061;SDS011;6597;52.218;9.882;2023-11-21T08:22:14;9.13;;;5.77;;
13061;SDS011;6597;52.218;9.882;2023-11-21T08:24:43;8.70;;;5.53;;
13061;SDS011;6597;52.218;9.882;2023-11-21T08:27:11;8.53;;;5.93;;
13061;SDS011;6597;52.218;9.882;2023-11-21T08:29:41;9.70;;;6.83;;
13061;SDS011;6597;52.218;9.882;2023-11-21T08:32:08;9.33;;;6.47;;
13061;SDS011;6597;52.218;9.882;2023-11-21T08:34:34;10.90;;;7.00;;
13061;SDS011;6597;52.218;9.882;2023-11-21T08:37:01;10.60;;;7.17;;
13061;SDS011;6597;52.218;9.882;2023-11-21T08:39:27;10.33;;;7.27;;
13061;SDS011;6597;52.218;9.882;2023-11-21T08:41:56;11.00;;;7.40;;
13061;SDS011;6597;52.218;9.882;2023-11-21T08:44:23;15.23;;;9.03;;
13061;SDS011;6597;52.218;9.882;2023-11-21T08:46:50;12.37;;;8.93;;
13061;SDS011;6597;52.218;9.882;2023-11-21T08:49:16;17.30;;;9.57;;
13061;SDS011;6597;52.218;9.882;2023-11-21T08:51:43;16.80;;;9.50;;
13061;SDS011;6597;52.218;9.882;2023-11-21T08:54:10;17.80;;;10.03;;
13061;SDS011;6597;52.218;9.882;2023-11-21T08:56:37;16.83;;;9.37;;
13061;SDS011;6597;52.218;9.882;2023-11-21T08:59:05;16.07;;;9.83;;
13061;SDS011;6597;52.218;9.882;2023-11-21T09:01:33;21.77;;;9.40;;
13061;SDS011;6597;52.218;9.882;2023-11-21T09:03:59;16.23;;;9.07;;
13061;SDS011;6597;52.218;9.882;2023-11-21T09:06:27;12.07;;;8.30;;
13061;SDS011;6597;52.218;9.882;2023-11-21T09:08:54;15.53;;;9.43;;
13061;SDS011;6597;52.218;9.882;2023-11-21T09:11:20;13.23;;;9.27;;
13061;SDS011;6597;52.218;9.882;2023-11-21T09:13:47;12.93;;;8.27;;
13061;SDS011;6597;52.218;9.882;2023-11-21T09:16:15;16.57;;;10.37;;
13061;SDS011;6597;52.218;9.882;2023-11-21T09:18:41;15.60;;;9.90;;
13061;SDS011;6597;52.218;9.882;2023-11-21T09:21:08;15.17;;;9.50;;
13061;SDS011;6597;52.218;9.882;2023-11-21T09:23:35;16.07;;;9.53;;
13061;SDS011;6597;52.218;9.882;2023-11-21T09:26:01;20.00;;;12.37;;
13061;SDS011;6597;52.218;9.882;2023-11-21T09:28:28;22.93;;;12.47;;
13061;SDS011;6597;52.218;9.882;2023-11-21T09:30:55;19.07;;;13.40;;
13061;SDS011;6597;52.218;9.882;2023-11-21T09:33:23;25.10;;;12.37;;
13061;SDS011;6597;52.218;9.882;2023-11-21T09:35:50;20.70;;;11.13;;
13061;SDS011;6597;52.218;9.882;2023-11-21T09:38:17;20.13;;;12.50;;
13061;SDS011;6597;52.218;9.882;2023-11-21T09:40:44;18.60;;;12.40;;
13061;SDS011;6597;52.218;9.882;2023-11-21T09:43:14;15.73;;;11.23;;
13061;SDS011;6597;52.218;9.882;2023-11-21T09:45:44;32.93;;;12.77;;
13061;SDS011;6597;52.218;9.882;2023-11-21T09:48:12;24.67;;;12.10;;
13061;SDS011;6597;52.218;9.882;2023-11-21T09:50:40;19.37;;;12.07;;
13061;SDS011;6597;52.218;9.882;2023-11-21T09:53:09;20.00;;;12.47;;
13061;SDS011;6597;52.218;9.882;2023-11-21T09:55:41;18.47;;;12.90;;
13061;SDS011;6597;52.218;9.882;2023-11-21T09:58:09;20.13;;;11.47;;
13061;SDS011;6597;52.218;9.882;2023-11-21T10:00:38;16.30;;;11.63;;
13061;SDS011;6597;52.218;9.882;2023-11-21T10:03:06;16.83;;;10.80;;
13061;SDS011;6597;52.218;9.882;2023-11-21T10:05:33;14.63;;;9.77;;
13061;SDS011;6597;52.218;9.882;2023-11-21T10:08:01;14.80;;;10.07;;
13061;SDS011;6597;52.218;9.882;2023-11-21T10:10:31;12.90;;;8.80;;
13061;SDS011;6597;52.218;9.882;2023-11-21T10:13:01;11.53;;;8.67;;
13061;SDS011;6597;52.218;9.882;2023-11-21T10:15:29;14.03;;;8.80;;
13061;SDS011;6597;52.218;9.882;2023-11-21T10:17:59;15.13;;;8.87;;
13061;SDS011;6597;52.218;9.882;2023-11-21T10:20:28;10.87;;;8.50;;
13061;SDS011;6597;52.218;9.882;2023-11-21T10:22:55;14.67;;;9.00;;
13061;SDS011;6597;52.218;9.882;2023-11-21T10:25:24;15.83;;;9.37;;
13061;SDS011;6597;52.218;9.882;2023-11-21T10:27:56;13.60;;;9.50;;
13061;SDS011;6597;52.218;9.882;2023-11-21T10:30:27;14.37;;;9.57;;
13061;SDS011;6597;52.218;9.882;2023-11-21T10:32:58;13.80;;;8.57;;
13061;SDS011;6597;52.218;9.882;2023-11-21T10:35:33;15.73;;;9.93;;
13061;SDS011;6597;52.218;9.882;2023-11-21T10:38:05;9.73;;;7.97;;
13061;SDS011;6597;52.218;9.882;2023-11-21T10:40:34;12.40;;;7.37;;
13061;SDS011;6597;52.218;9.882;2023-11-21T10:43:05;10.70;;;7.37;;
13061;SDS011;6597;52.218;9.882;2023-11-21T10:45:33;9.50;;;7.20;;
13061;SDS011;6597;52.218;9.882;2023-11-21T10:48:04;12.53;;;7.40;;
13061;SDS011;6597;52.218;9.882;2023-11-21T10:50:32;11.80;;;7.70;;
13061;SDS011;6597;52.218;9.882;2023-11-21T10:53:00;11.30;;;7.00;;
13061;SDS011;6597;52.218;9.882;2023-11-21T10:55:29;9.73;;;8.10;;
13061;SDS011;6597;52.218;9.882;2023-11-21T10:57:58;10.63;;;7.33;;
13061;SDS011;6597;52.218;9.882;2023-11-21T11:00:27;10.93;;;7.27;;
13061;SDS011;6597;52.218;9.882;2023-11-21T11:02:54;12.60;;;7.20;;
13061;SDS011;6597;52.218;9.882;2023-11-21T11:05:21;11.53;;;6.60;;
13061;SDS011;6597;52.218;9.882;2023-11-21T11:07:51;9.97;;;6.20;;
13061;SDS011;6597;52.218;9.882;2023-11-21T11:10:25;11.40;;;5.40;;
13061;SDS011;6597;52.218;9.882;2023-11-21T11:12:53;8.63;;;5.80;;
13061;SDS011;6597;52.218;9.882;2023-11-21T11:15:21;6.93;;;5.47;;
13061;SDS011;6597;52.218;9.882;2023-11-21T11:17:48;7.37;;;5.40;;
13061;SDS011;6597;52.218;9.882;2023-11-21T11:20:15;8.77;;;6.43;;
13061;SDS011;6597;52.218;9.882;2023-11-21T11:22:48;8.00;;;6.03;;
13061;SDS011;6597;52.218;9.882;2023-11-21T11:28:14;8.50;;;5.53;;
13061;SDS011;6597;52.218;9.882;2023-11-21T11:30:50;8.10;;;5.57;;
13061;SDS011;6597;52.218;9.882;2023-11-21T11:33:31;9.07;;;5.50;;
13061;SDS011;6597;52.218;9.882;2023-11-21T11:36:05;10.57;;;7.27;;
13061;SDS011;6597;52.218;9.882;2023-11-21T11:38:36;8.00;;;5.37;;
13061;SDS011;6597;52.218;9.882;2023-11-21T11:41:03;11.60;;;6.13;;
13061;SDS011;6597;52.218;9.882;2023-11-21T11:43:31;10.27;;;5.70;;
13061;SDS011;6597;52.218;9.882;2023-11-21T11:46:09;10.57;;;5.97;;
13061;SDS011;6597;52.218;9.882;2023-11-21T11:48:38;9.70;;;6.90;;
13061;SDS011;6597;52.218;9.882;2023-11-21T11:51:06;9.43;;;6.17;;
13061;SDS011;6597;52.218;9.882;2023-11-21T11:53:37;9.77;;;6.37;;
13061;SDS011;6597;52.218;9.882;2023-11-21T11:56:25;9.07;;;6.07;;
13061;SDS011;6597;52.218;9.882;2023-11-21T11:58:53;15.07;;;6.87;;
13061;SDS011;6597;52.218;9.882;2023-11-21T12:01:22;19.13;;;7.30;;
13061;SDS011;6597;52.218;9.882;2023-11-21T12:06:56;14.77;;;6.00;;
13061;SDS011;6597;52.218;9.882;2023-11-21T12:13:14;11.30;;;5.97;;
13061;SDS011;6597;52.218;9.882;2023-11-21T12:15:41;11.13;;;5.87;;
13061;SDS011;6597;52.218;9.882;2023-11-21T12:18:10;13.77;;;6.63;;
13061;SDS011;6597;52.218;9.882;2023-11-21T12:20:36;13.00;;;5.70;;
13061;SDS011;6597;52.218;9.882;2023-11-21T12:23:06;10.23;;;5.20;;
13061;SDS011;6597;52.218;9.882;2023-11-21T12:25:35;12.47;;;6.33;;
13061;SDS011;6597;52.218;9.882;2023-11-21T12:28:02;11.70;;;6.43;;
13061;SDS011;6597;52.218;9.882;2023-11-21T12:30:30;9.70;;;5.20;;
13061;SDS011;6597;52.218;9.882;2023-11-21T12:32:58;13.10;;;5.87;;
13061;SDS011;6597;52.218;9.882;2023-11-21T12:35:30;11.67;;;5.83;;
13061;SDS011;6597;52.218;9.882;2023-11-21T12:37:59;11.03;;;5.87;;
13061;SDS011;6597;52.218;9.882;2023-11-21T12:40:27;11.83;;;6.07;;
13061;SDS011;6597;52.218;9.882;2023-11-21T12:42:55;13.27;;;5.93;;
13061;SDS011;6597;52.218;9.882;2023-11-21T12:45:24;9.83;;;4.77;;
13061;SDS011;6597;52.218;9.882;2023-11-21T12:47:54;10.90;;;5.63;;
13061;SDS011;6597;52.218;9.882;2023-11-21T12:50:25;8.50;;;4.70;;
13061;SDS011;6597;52.218;9.882;2023-11-21T12:52:58;13.43;;;6.17;;
13061;SDS011;6597;52.218;9.882;2023-11-21T12:55:25;9.20;;;5.47;;
13061;SDS011;6597;52.218;9.882;2023-11-21T12:57:56;11.87;;;6.47;;
13061;SDS011;6597;52.218;9.882;2023-11-21T13:00:27;12.00;;;6.10;;
13061;SDS011;6597;52.218;9.882;2023-11-21T13:02:57;9.53;;;5.10;;
13061;SDS011;6597;52.218;9.882;2023-11-21T13:05:25;9.10;;;4.77;;
13061;SDS011;6597;52.218;9.882;2023-11-21T13:07:54;10.90;;;5.33;;
13061;SDS011;6597;52.218;9.882;2023-11-21T13:10:23;14.33;;;6.67;;
13061;SDS011;6597;52.218;9.882;2023-11-21T13:12:55;10.80;;;5.50;;
13061;SDS011;6597;52.218;9.882;2023-11-21T13:15:23;9.77;;;5.40;;
13061;SDS011;6597;52.218;9.882;2023-11-21T13:17:50;10.07;;;5.00;;
13061;SDS011;6597;52.218;9.882;2023-11-21T13:20:18;11.90;;;6.13;;
13061;SDS011;6597;52.218;9.882;2023-11-21T13:22:49;12.20;;;4.90;;
13061;SDS011;6597;52.218;9.882;2023-11-21T13:25:20;9.70;;;5.33;;
13061;SDS011;6597;52.218;9.882;2023-11-21T13:27:47;10.10;;;5.37;;
13061;SDS011;6597;52.218;9.882;2023-11-21T13:30:14;10.40;;;5.10;;
13061;SDS011;6597;52.218;9.882;2023-11-21T13:32:42;8.87;;;4.93;;
13061;SDS011;6597;52.218;9.882;2023-11-21T13:35:10;9.10;;;4.77;;
13061;SDS011;6597;52.218;9.882;2023-11-21T13:37:46;8.67;;;4.50;;
13061;SDS011;6597;52.218;9.882;2023-11-21T13:40:20;8.10;;;4.70;;
13061;SDS011;6597;52.218;9.882;2023-11-21T13:42:51;7.67;;;4.37;;
13061;SDS011;6597;52.218;9.882;2023-11-21T13:45:19;7.20;;;4.53;;
13061;SDS011;6597;52.218;9.882;2023-11-21T13:47:50;10.87;;;4.97;;
13061;SDS011;6597;52.218;9.882;2023-11-21T13:50:22;9.23;;;4.70;;
13061;SDS011;6597;52.218;9.882;2023-11-21T13:52:54;9.60;;;5.10;;
13061;SDS011;6597;52.218;9.882;2023-11-21T13:55:22;8.87;;;4.87;;
13061;SDS011;6597;52.218;9.882;2023-11-21T13:57:50;9.70;;;5.20;;
13061;SDS011;6597;52.218;9.882;2023-11-21T14:00:18;10.43;;;5.03;;
13061;SDS011;6597;52.218;9.882;2023-11-21T14:05:33;8.90;;;4.60;;
13061;SDS011;6597;52.218;9.882;2023-11-21T14:08:00;13.03;;;4.30;;
13061;SDS011;6597;52.218;9.882;2023-11-21T14:10:31;9.53;;;4.40;;
13061;SDS011;6597;52.218;9.882;2023-11-21T14:13:05;7.60;;;4.17;;
13061;SDS011;6597;52.218;9.882;2023-11-21T14:15:32;9.30;;;4.20;;
13061;SDS011;6597;52.218;9.882;2023-11-21T14:18:07;7.37;;;3.83;;
13061;SDS011;6597;52.218;9.882;2023-11-21T14:20:35;7.27;;;4.23;;
13061;SDS011;6597;52.218;9.882;2023-11-21T14:23:03;8.83;;;4.13;;
13061;SDS011;6597;52.218;9.882;2023-11-21T14:25:32;4.10;;;3.13;;
13061;SDS011;6597;52.218;9.882;2023-11-21T14:28:02;9.30;;;3.87;;
13061;SDS011;6597;52.218;9.882;2023-11-21T14:30:30;6.33;;;3.37;;
13061;SDS011;6597;52.218;9.882;2023-11-21T14:32:57;10.67;;;3.87;;
13061;SDS011;6597;52.218;9.882;2023-11-21T14:35:24;7.43;;;3.90;;
13061;SDS011;6597;52.218;9.882;2023-11-21T14:37:51;6.30;;;3.40;;
13061;SDS011;6597;52.218;9.882;2023-11-21T14:40:18;8.50;;;4.27;;
13061;SDS011;6597;52.218;9.882;2023-11-21T14:42:51;7.03;;;3.50;;
13061;SDS011;6597;52.218;9.882;2023-11-21T14:45:19;9.03;;;3.90;;
13061;SDS011;6597;52.218;9.882;2023-11-21T14:47:47;8.23;;;4.07;;
13061;SDS011;6597;52.218;9.882;2023-11-21T14:50:22;7.63;;;3.87;;
13061;SDS011;6597;52.218;9.882;2023-11-21T14:53:13;12.60;;;5.77;;
13061;SDS011;6597;52.218;9.882;2023-11-21T14:55:39;19.77;;;5.40;;
13061;SDS011;6597;52.218;9.882;2023-11-21T14:58:21;8.93;;;5.00;;
13061;SDS011;6597;52.218;9.882;2023-11-21T15:00:55;7.00;;;3.53;;